Time;durP1;ratioP1;P1;durP2;ratioP2;P2;SDS_P1;SDS_P2;PMS_P1;PMS_P2;Temp;Humidity;BMP_temperature;BMP_pressure;BME280_temperature;BME280_humidity;BME280_pressure;Samples;Min_cycle;Max_cycle;Signal;HPM_P1;HPM_P2
2023/03/18 00:00:17;;;;;;;16.37;8.90;;;5.40;45.50;;;;;;5013080;28;46356;-79
2023/03/18 00:02:44;;;;;;;21.17;9.97;;;5.40;46.60;;;;;;5015211;28;46376;-80
2023/03/18 00:05:11;;;;;;;18.10;9.43;;;5.40;45.30;;;;;;5022570;28;46324;-82
2023/03/18 00:07:37;;;;;;;16.37;8.60;;;5.50;45.40;;;;;;5021263;28;45977;-80
2023/03/18 00:10:05;;;;;;;14.30;7.77;;;5.60;45.40;;;;;;5014060;28;46442;-81
2023/03/18 00:12:32;;;;;;;16.30;7.57;;;5.60;45.40;;;;;;5014328;28;47298;-80
2023/03/18 00:14:58;;;;;;;16.70;8.10;;;5.60;45.40;;;;;;5019401;28;46020;-80
2023/03/18 00:17:24;;;;;;;15.60;7.90;;;5.70;45.40;;;;;;5022489;28;46544;-80
2023/03/18 00:19:50;;;;;;;16.70;9.00;;;5.60;45.30;;;;;;5018176;28;46467;-79
2023/03/18 00:22:16;;;;;;;19.83;8.60;;;5.70;45.40;;;;;;5015014;28;46518;-81
2023/03/18 00:24:42;;;;;;;13.80;8.53;;;5.70;45.40;;;;;;5016178;28;46458;-79
2023/03/18 00:27:08;;;;;;;15.20;8.50;;;5.70;45.20;;;;;;5016721;28;46581;-80
2023/03/18 00:29:33;;;;;;;15.07;8.00;;;5.80;45.20;;;;;;5014139;28;47265;-79
2023/03/18 00:31:59;;;;;;;17.03;8.37;;;5.80;45.30;;;;;;5010368;28;46451;-77
2023/03/18 00:34:26;;;;;;;14.40;7.90;;;5.80;45.20;;;;;;5015219;28;46352;-78
2023/03/18 00:36:55;;;;;;;16.40;9.20;;;5.90;45.30;;;;;;5015379;28;46514;-80
2023/03/18 00:39:25;;;;;;;13.53;7.83;;;5.90;45.20;;;;;;5015989;28;46458;-79
2023/03/18 00:41:53;;;;;;;18.43;8.30;;;6.00;45.30;;;;;;5011057;28;46464;-78
2023/03/18 00:44:19;;;;;;;17.90;9.40;;;6.00;45.30;;;;;;5011087;28;46457;-80
2023/03/18 00:46:44;;;;;;;14.00;7.73;;;6.00;45.20;;;;;;5015025;28;46285;-79
2023/03/18 00:49:10;;;;;;;13.80;7.73;;;6.00;45.20;;;;;;5014479;28;46357;-79
2023/03/18 00:51:37;;;;;;;13.77;7.60;;;6.10;45.20;;;;;;5017081;28;46421;-79
2023/03/18 00:54:06;;;;;;;12.13;7.03;;;6.10;45.00;;;;;;5014361;28;46239;-79
2023/03/18 00:56:32;;;;;;;12.43;7.23;;;6.10;45.10;;;;;;5015416;28;45931;-79
2023/03/18 00:58:59;;;;;;;15.93;8.50;;;6.20;45.00;;;;;;5012424;28;46410;-79
2023/03/18 01:01:26;;;;;;;13.10;8.30;;;6.20;45.00;;;;;;5017996;28;46008;-79
2023/03/18 01:03:52;;;;;;;14.30;7.17;;;6.20;45.00;;;;;;5046126;28;46786;-79
2023/03/18 01:06:22;;;;;;;14.43;7.73;;;6.20;45.00;;;;;;5020221;28;45870;-79
2023/03/18 01:08:48;;;;;;;11.40;6.97;;;6.20;45.20;;;;;;5016752;28;46768;-79
2023/03/18 01:11:14;;;;;;;15.00;6.30;;;6.10;45.00;;;;;;5014984;28;46335;-79
2023/03/18 01:13:40;;;;;;;11.93;7.03;;;6.10;45.10;;;;;;5013439;28;46406;-79
2023/03/18 01:16:07;;;;;;;11.50;6.97;;;6.10;45.30;;;;;;5013333;28;46490;-80
2023/03/18 01:18:34;;;;;;;15.90;8.10;;;6.00;45.60;;;;;;5018631;28;46667;-80
2023/03/18 01:21:00;;;;;;;11.20;6.77;;;6.00;45.20;;;;;;5013486;28;46670;-80
2023/03/18 01:23:26;;;;;;;13.03;6.83;;;6.00;45.40;;;;;;5015359;28;46383;-79
2023/03/18 01:25:52;;;;;;;15.20;7.33;;;5.90;45.50;;;;;;5015857;28;45767;-79
2023/03/18 01:28:19;;;;;;;15.10;7.03;;;5.90;45.50;;;;;;5016953;28;46383;-80
2023/03/18 01:30:45;;;;;;;17.60;7.67;;;5.90;45.50;;;;;;5013758;28;46482;-80
2023/03/18 01:33:11;;;;;;;12.30;6.93;;;6.00;45.40;;;;;;5013304;28;46454;-80
2023/03/18 01:35:37;;;;;;;13.67;8.10;;;5.90;45.20;;;;;;5019849;28;46919;-82
2023/03/18 01:38:04;;;;;;;14.47;6.87;;;5.90;45.20;;;;;;5015276;28;46887;-79
2023/03/18 01:40:32;;;;;;;13.80;7.80;;;6.00;45.20;;;;;;5013574;28;46448;-81
2023/03/18 01:43:13;;;;;;;12.83;7.50;;;6.00;45.10;;;;;;5020475;28;46676;-81
2023/03/18 01:45:44;;;;;;;13.17;6.73;;;6.00;45.00;;;;;;5047579;28;45885;-79
2023/03/18 01:48:15;;;;;;;11.33;6.50;;;5.90;45.10;;;;;;5017247;28;46514;-81
2023/03/18 01:50:42;;;;;;;11.03;6.13;;;5.90;45.30;;;;;;5022147;28;46808;-81
2023/03/18 01:53:12;;;;;;;9.83;6.27;;;5.90;45.30;;;;;;5018277;28;46392;-82
2023/03/18 01:55:39;;;;;;;11.50;7.00;;;5.90;45.20;;;;;;5016200;28;47034;-82
2023/03/18 01:58:27;;;;;;;11.53;6.60;;;5.90;45.10;;;;;;5013944;28;46423;-80
2023/03/18 02:00:59;;;;;;;11.50;6.30;;;5.90;45.00;;;;;;5013336;28;46899;-79
2023/03/18 02:03:26;;;;;;;9.97;6.00;;;5.80;45.00;;;;;;5010385;28;46466;-78
2023/03/18 02:05:52;;;;;;;12.30;6.97;;;5.70;45.10;;;;;;5008269;28;46895;-79
2023/03/18 02:08:18;;;;;;;13.50;7.47;;;5.70;45.30;;;;;;5011389;28;46977;-78
2023/03/18 02:10:45;;;;;;;10.30;6.07;;;5.70;45.30;;;;;;5015688;28;46479;-79
2023/03/18 02:13:12;;;;;;;8.87;6.10;;;5.70;45.20;;;;;;5016082;28;46477;-80
2023/03/18 02:15:49;;;;;;;13.60;7.00;;;5.70;45.10;;;;;;5015205;28;46456;-80
2023/03/18 02:18:28;;;;;;;14.80;7.50;;;5.70;45.10;;;;;;5018054;28;46407;-77
2023/03/18 02:21:38;;;;;;;9.63;5.60;;;5.80;45.10;;;;;;5015857;28;46465;-81
2023/03/18 02:24:15;;;;;;;12.30;6.93;;;5.80;44.90;;;;;;4988068;28;45930;-79
2023/03/18 02:27:03;;;;;;;14.60;6.70;;;5.90;44.70;;;;;;4990581;28;45762;-78
2023/03/18 02:29:32;;;;;;;12.00;5.93;;;6.00;44.70;;;;;;4997560;28;47412;-79
2023/03/18 02:32:01;;;;;;;11.00;6.00;;;5.90;44.50;;;;;;5007775;28;46200;-79
2023/03/18 02:34:28;;;;;;;13.17;6.87;;;5.90;44.60;;;;;;5013627;28;46454;-79
2023/03/18 02:36:53;;;;;;;10.10;6.00;;;5.90;44.70;;;;;;5015200;28;46293;-79
2023/03/18 02:39:21;;;;;;;15.60;6.60;;;5.90;44.50;;;;;;5014459;28;46832;-80
2023/03/18 02:41:47;;;;;;;11.10;5.27;;;5.90;44.60;;;;;;5014731;28;45772;-79
2023/03/18 02:44:12;;;;;;;11.93;6.10;;;5.80;44.70;;;;;;5013003;28;47207;-78
2023/03/18 02:46:58;;;;;;;9.30;5.50;;;5.70;44.90;;;;;;5014634;28;45914;-79
2023/03/18 02:49:26;;;;;;;10.33;6.03;;;5.70;45.00;;;;;;5011322;28;46353;-79
2023/03/18 02:51:53;;;;;;;20.70;6.30;;;5.70;45.10;;;;;;5015478;28;46425;-79
2023/03/18 02:54:24;;;;;;;16.40;5.70;;;5.60;45.20;;;;;;5013910;28;47329;-79
2023/03/18 02:56:50;;;;;;;7.20;5.00;;;5.60;45.30;;;;;;5009869;28;46423;-79
2023/03/18 02:59:17;;;;;;;11.17;5.50;;;5.60;45.20;;;;;;5008936;28;47006;-79
2023/03/18 03:01:45;;;;;;;10.10;5.80;;;5.60;45.00;;;;;;5010602;28;46601;-79
2023/03/18 03:04:11;;;;;;;11.57;5.70;;;5.60;45.00;;;;;;5012519;28;45843;-79
2023/03/18 03:06:37;;;;;;;11.20;5.60;;;5.70;45.10;;;;;;5012119;28;45986;-80
2023/03/18 03:09:05;;;;;;;11.20;5.40;;;5.80;45.10;;;;;;5014175;28;47140;-80
2023/03/18 03:11:31;;;;;;;10.40;6.13;;;5.70;45.10;;;;;;5014422;28;46355;-80
2023/03/18 03:13:57;;;;;;;9.20;5.03;;;5.60;45.10;;;;;;5012196;28;46447;-80
2023/03/18 03:16:23;;;;;;;11.90;5.10;;;5.60;45.10;;;;;;5014612;28;46537;-80
2023/03/18 03:18:49;;;;;;;9.73;5.50;;;5.60;45.00;;;;;;5026613;28;46425;-80
2023/03/18 03:21:15;;;;;;;9.87;4.90;;;5.70;44.90;;;;;;5020692;28;46402;-79
2023/03/18 03:23:42;;;;;;;9.97;5.20;;;5.70;44.70;;;;;;5022876;28;46849;-80
2023/03/18 03:26:08;;;;;;;11.73;5.03;;;5.80;44.60;;;;;;5015793;28;46331;-80
2023/03/18 03:28:33;;;;;;;14.57;5.17;;;5.90;44.40;;;;;;5014205;28;46467;-82
2023/03/18 03:31:00;;;;;;;8.33;5.07;;;6.00;44.10;;;;;;5017045;28;45864;-80
2023/03/18 03:33:26;;;;;;;10.83;5.70;;;6.20;44.00;;;;;;5020096;28;46416;-78
2023/03/18 03:35:52;;;;;;;10.47;6.00;;;6.10;43.80;;;;;;5011565;28;46458;-82
2023/03/18 03:38:18;;;;;;;14.27;4.80;;;6.10;43.90;;;;;;5020302;28;47099;-81
2023/03/18 03:40:45;;;;;;;8.93;4.90;;;6.20;43.70;;;;;;5019328;28;46368;-82
2023/03/18 03:43:13;;;;;;;9.10;4.77;;;6.20;43.80;;;;;;5048775;28;45807;-81
2023/03/18 03:45:39;;;;;;;9.53;5.67;;;6.20;43.80;;;;;;5020683;28;46242;-80
2023/03/18 03:48:05;;;;;;;7.20;4.67;;;6.30;43.70;;;;;;5012083;28;46449;-79
2023/03/18 03:50:31;;;;;;;9.03;4.63;;;6.30;43.60;;;;;;5044353;28;46430;-79
2023/03/18 03:52:57;;;;;;;9.43;4.47;;;6.30;43.60;;;;;;5011710;28;46495;-79
2023/03/18 03:55:23;;;;;;;8.80;4.20;;;6.30;43.40;;;;;;5013145;28;46412;-78
2023/03/18 03:57:50;;;;;;;11.57;4.60;;;6.40;43.60;;;;;;5013444;28;46359;-79
2023/03/18 04:00:20;;;;;;;11.13;4.47;;;6.40;43.70;;;;;;5012179;28;46339;-79
2023/03/18 04:02:47;;;;;;;12.13;5.10;;;6.40;43.70;;;;;;5013927;28;47471;-79
2023/03/18 04:05:16;;;;;;;8.80;4.80;;;6.40;43.60;;;;;;5014972;28;46499;-79
2023/03/18 04:07:42;;;;;;;8.33;4.37;;;6.40;43.50;;;;;;5017221;28;46387;-79
2023/03/18 04:10:10;;;;;;;6.60;4.20;;;6.30;43.40;;;;;;5014913;28;46520;-80
2023/03/18 04:12:37;;;;;;;7.53;4.23;;;6.30;43.50;;;;;;5012929;28;46578;-80
2023/03/18 04:15:04;;;;;;;6.90;3.90;;;6.30;43.40;;;;;;5017508;28;45816;-80
2023/03/18 04:17:30;;;;;;;6.97;3.80;;;6.30;43.60;;;;;;5016895;28;46283;-79
2023/03/18 04:19:55;;;;;;;8.13;4.70;;;6.30;43.60;;;;;;5014816;28;45998;-80
2023/03/18 04:22:21;;;;;;;10.60;4.10;;;6.30;43.70;;;;;;5018454;28;46430;-79
2023/03/18 04:24:47;;;;;;;8.40;4.10;;;6.30;43.80;;;;;;5017101;28;46104;-78
2023/03/18 04:27:12;;;;;;;6.10;3.60;;;6.30;43.90;;;;;;5013469;28;46284;-76
2023/03/18 04:29:38;;;;;;;9.73;3.63;;;6.30;43.80;;;;;;5021997;28;46323;-80
2023/03/18 04:32:04;;;;;;;10.33;4.13;;;6.30;43.80;;;;;;5008957;28;46352;-79
2023/03/18 04:34:30;;;;;;;5.80;3.63;;;6.30;43.60;;;;;;5014128;28;46444;-79
2023/03/18 04:36:56;;;;;;;7.37;3.53;;;6.40;43.60;;;;;;5020184;28;46975;-77
2023/03/18 04:39:22;;;;;;;6.50;3.13;;;6.40;43.30;;;;;;5016972;28;46335;-80
2023/03/18 04:41:48;;;;;;;6.30;4.40;;;6.50;43.30;;;;;;5015490;28;46417;-78
2023/03/18 04:44:13;;;;;;;6.40;3.30;;;6.50;43.20;;;;;;5013064;28;46680;-79
2023/03/18 04:46:39;;;;;;;6.37;3.53;;;6.50;43.00;;;;;;5010408;28;46907;-80
2023/03/18 04:49:04;;;;;;;6.13;3.40;;;6.60;43.00;;;;;;5014590;28;46544;-79
2023/03/18 04:51:30;;;;;;;5.30;3.20;;;6.60;42.90;;;;;;5014585;28;46480;-81
2023/03/18 04:53:56;;;;;;;5.23;3.17;;;6.60;42.80;;;;;;5013445;28;46356;-79
2023/03/18 04:56:22;;;;;;;6.03;3.80;;;6.70;42.80;;;;;;5017029;28;46913;-79
2023/03/18 04:58:49;;;;;;;6.70;3.40;;;6.70;42.70;;;;;;5015533;28;45913;-79
2023/03/18 05:01:15;;;;;;;6.00;2.90;;;6.70;42.70;;;;;;5016329;28;46179;-78
2023/03/18 05:03:40;;;;;;;13.20;3.10;;;6.70;42.70;;;;;;5011701;28;46369;-79
2023/03/18 05:06:15;;;;;;;8.60;3.40;;;6.80;42.60;;;;;;5011358;28;48403;-78
2023/03/18 05:08:41;;;;;;;5.40;3.60;;;6.80;42.50;;;;;;5014969;28;46380;-78
2023/03/18 05:11:06;;;;;;;8.27;3.47;;;6.90;42.40;;;;;;5014786;28;46403;-80
2023/03/18 05:13:32;;;;;;;6.97;3.20;;;7.00;42.40;;;;;;5011415;28;46592;-80
2023/03/18 05:15:58;;;;;;;6.47;3.37;;;7.10;42.30;;;;;;5014841;28;47007;-80
2023/03/18 05:18:23;;;;;;;3.63;2.67;;;7.10;42.20;;;;;;5012193;28;46388;-80
2023/03/18 05:20:49;;;;;;;5.97;2.87;;;7.10;42.10;;;;;;5009856;28;46367;-80
2023/03/18 05:23:15;;;;;;;6.63;2.97;;;7.10;41.90;;;;;;5012574;28;46292;-79
2023/03/18 05:25:41;;;;;;;6.10;3.17;;;7.10;42.00;;;;;;5016249;28;47151;-80
2023/03/18 05:28:06;;;;;;;6.43;2.80;;;7.20;41.90;;;;;;5016024;28;46420;-80
2023/03/18 05:30:33;;;;;;;4.93;2.30;;;7.10;41.90;;;;;;5015292;28;46410;-81
2023/03/18 05:32:58;;;;;;;4.57;2.50;;;7.10;41.90;;;;;;5023849;28;46447;-81
2023/03/18 05:35:24;;;;;;;6.70;3.53;;;7.20;41.90;;;;;;5016508;28;46481;-77
2023/03/18 05:37:50;;;;;;;6.17;3.40;;;7.20;41.90;;;;;;5012801;28;46505;-79
2023/03/18 05:40:16;;;;;;;9.00;2.93;;;7.20;41.80;;;;;;5013468;28;46390;-83
2023/03/18 05:42:42;;;;;;;6.07;3.17;;;7.20;41.80;;;;;;5011755;28;47041;-82
2023/03/18 05:45:08;;;;;;;5.77;2.60;;;7.20;41.70;;;;;;5015040;28;46555;-82
2023/03/18 05:47:34;;;;;;;6.07;3.43;;;7.20;41.50;;;;;;5017498;28;46336;-82
2023/03/18 05:50:01;;;;;;;7.40;3.57;;;7.20;41.60;;;;;;5014863;28;45780;-80
2023/03/18 05:52:28;;;;;;;4.63;2.57;;;7.20;41.60;;;;;;5015090;28;46862;-81
2023/03/18 05:54:54;;;;;;;7.03;3.27;;;7.20;41.50;;;;;;5011780;28;46560;-80
2023/03/18 05:57:20;;;;;;;7.03;3.70;;;7.30;41.50;;;;;;5010730;28;46489;-82
2023/03/18 05:59:45;;;;;;;4.30;2.63;;;7.30;41.30;;;;;;5013350;28;46421;-82
2023/03/18 06:02:11;;;;;;;8.37;2.80;;;7.30;41.30;;;;;;5012348;28;46605;-80
2023/03/18 06:04:37;;;;;;;5.43;2.90;;;7.30;41.40;;;;;;5011601;28;46760;-81
2023/03/18 06:07:04;;;;;;;8.33;2.77;;;7.40;41.30;;;;;;5014368;28;46257;-81
2023/03/18 06:09:32;;;;;;;5.93;3.10;;;7.40;41.20;;;;;;5015208;28;46420;-77
2023/03/18 06:11:57;;;;;;;6.80;2.97;;;7.60;41.10;;;;;;5014579;28;46837;-79
2023/03/18 06:14:28;;;;;;;8.17;2.63;;;7.60;40.90;;;;;;5014420;28;47003;-79
2023/03/18 06:16:54;;;;;;;4.63;2.60;;;7.80;40.90;;;;;;5016226;28;46191;-80
2023/03/18 06:19:20;;;;;;;4.20;2.80;;;7.80;40.50;;;;;;5017362;28;46260;-77
2023/03/18 06:21:47;;;;;;;4.87;3.13;;;7.90;40.30;;;;;;5015913;28;46900;-79
2023/03/18 06:24:14;;;;;;;5.67;3.13;;;7.80;40.70;;;;;;5011605;28;47087;-79
2023/03/18 06:26:40;;;;;;;4.93;2.80;;;7.90;40.70;;;;;;5008949;28;46422;-80
2023/03/18 06:29:05;;;;;;;4.63;2.23;;;8.00;40.60;;;;;;5012774;28;46377;-80
2023/03/18 06:31:32;;;;;;;5.60;2.90;;;8.10;40.70;;;;;;5013187;28;46260;-80
2023/03/18 06:33:58;;;;;;;6.13;2.93;;;8.30;40.50;;;;;;5014160;28;46410;-79
2023/03/18 06:36:23;;;;;;;7.27;3.00;;;8.30;40.50;;;;;;5010808;28;46382;-79
2023/03/18 06:38:49;;;;;;;5.60;2.97;;;8.30;40.70;;;;;;5013705;28;45849;-81
2023/03/18 06:41:15;;;;;;;6.83;3.07;;;8.40;40.90;;;;;;5044564;28;46557;-81
2023/03/18 06:43:42;;;;;;;4.60;2.53;;;8.50;40.50;;;;;;5019376;28;46380;-78
2023/03/18 06:46:07;;;;;;;5.87;3.03;;;8.70;40.30;;;;;;5014361;28;46359;-80
2023/03/18 06:48:34;;;;;;;8.40;3.10;;;8.70;40.00;;;;;;5013309;28;46440;-80
2023/03/18 06:50:59;;;;;;;5.50;2.77;;;8.70;40.20;;;;;;5010052;28;46522;-79
2023/03/18 06:53:26;;;;;;;5.77;3.73;;;8.80;40.30;;;;;;5011784;28;47052;-79
2023/03/18 06:55:52;;;;;;;5.47;2.80;;;8.90;40.30;;;;;;5012501;28;46460;-80
2023/03/18 06:58:18;;;;;;;6.53;3.63;;;8.90;40.30;;;;;;5016978;28;46426;-80
2023/03/18 07:00:46;;;;;;;7.90;3.20;;;9.00;40.40;;;;;;5008620;28;46568;-82
2023/03/18 07:03:14;;;;;;;6.60;3.30;;;9.20;40.20;;;;;;5014157;28;47104;-78
2023/03/18 07:05:41;;;;;;;6.53;3.03;;;9.40;39.90;;;;;;5017737;28;45732;-80
2023/03/18 07:08:08;;;;;;;5.23;3.00;;;9.60;39.10;;;;;;5023303;28;46595;-78
2023/03/18 07:10:34;;;;;;;4.40;2.93;;;9.80;39.20;;;;;;5021366;28;47513;-81
2023/03/18 07:13:00;;;;;;;4.20;2.40;;;9.90;39.30;;;;;;5013397;28;46513;-81
2023/03/18 07:15:26;;;;;;;10.20;3.07;;;10.00;37.70;;;;;;5010028;28;45944;-79
2023/03/18 07:17:52;;;;;;;4.87;3.00;;;10.30;37.60;;;;;;5015282;28;46724;-82
2023/03/18 07:20:18;;;;;;;5.23;2.77;;;10.30;37.20;;;;;;5016799;28;46740;-82
2023/03/18 07:22:45;;;;;;;7.90;3.10;;;10.40;38.30;;;;;;5014629;28;46986;-79
2023/03/18 07:25:12;;;;;;;6.33;2.93;;;10.50;37.00;;;;;;5012697;28;46415;-78
2023/03/18 07:27:38;;;;;;;7.30;3.27;;;10.60;36.80;;;;;;5012234;28;46812;-79
2023/03/18 07:30:05;;;;;;;8.53;3.10;;;10.80;36.80;;;;;;5010598;28;46513;-81
2023/03/18 07:32:30;;;;;;;7.90;3.13;;;10.80;36.50;;;;;;5011730;28;47296;-78
2023/03/18 07:34:56;;;;;;;5.00;2.97;;;11.00;36.30;;;;;;5011821;28;45822;-80
2023/03/18 07:37:22;;;;;;;5.97;3.13;;;11.10;36.00;;;;;;5015478;28;46412;-78
2023/03/18 07:39:48;;;;;;;6.20;3.20;;;11.10;35.70;;;;;;5011198;28;46472;-80
2023/03/18 07:42:14;;;;;;;5.23;2.80;;;11.20;35.50;;;;;;5014010;28;46479;-79
2023/03/18 07:44:39;;;;;;;5.73;2.10;;;11.30;35.40;;;;;;5017739;28;46607;-79
2023/03/18 07:47:05;;;;;;;7.17;2.70;;;11.50;35.10;;;;;;5018423;28;46434;-80
2023/03/18 07:49:31;;;;;;;6.33;2.90;;;11.60;35.00;;;;;;5015909;28;46409;-79
2023/03/18 07:51:56;;;;;;;6.00;3.10;;;11.80;34.80;;;;;;5013671;28;46476;-79
2023/03/18 07:54:23;;;;;;;3.97;2.27;;;11.80;34.60;;;;;;5012493;28;46793;-77
2023/03/18 07:56:49;;;;;;;8.97;3.30;;;12.00;34.70;;;;;;5012615;28;46348;-78
2023/03/18 07:59:15;;;;;;;6.50;2.27;;;12.10;34.50;;;;;;5014870;28;45944;-79
2023/03/18 08:01:40;;;;;;;5.03;2.80;;;12.10;34.00;;;;;;5048342;28;47162;-79
2023/03/18 08:04:07;;;;;;;7.97;2.53;;;12.20;33.60;;;;;;5015132;28;46494;-79
2023/03/18 08:06:33;;;;;;;7.53;2.70;;;12.30;33.50;;;;;;5014926;28;46501;-78
2023/03/18 08:08:59;;;;;;;4.57;2.50;;;12.40;33.40;;;;;;5012343;28;46470;-81
2023/03/18 08:11:25;;;;;;;4.80;2.10;;;12.50;33.30;;;;;;5011291;28;46494;-81
2023/03/18 08:13:50;;;;;;;8.50;2.97;;;12.60;33.20;;;;;;5013687;28;46430;-80
2023/03/18 08:16:17;;;;;;;5.40;2.63;;;12.70;32.90;;;;;;5013204;28;46480;-82
2023/03/18 08:18:43;;;;;;;4.10;2.63;;;12.90;32.60;;;;;;5020833;28;46370;-81
2023/03/18 08:21:09;;;;;;;9.20;2.50;;;13.00;32.40;;;;;;5012570;28;46385;-81
2023/03/18 08:23:35;;;;;;;14.67;2.80;;;13.00;32.20;;;;;;5013968;28;46360;-81
2023/03/18 08:26:01;;;;;;;6.23;2.90;;;13.10;32.00;;;;;;5012642;28;46320;-80
2023/03/18 08:28:27;;;;;;;6.57;2.93;;;13.20;31.70;;;;;;5015412;28;46488;-80
2023/03/18 08:30:58;;;;;;;10.10;2.43;;;13.40;31.30;;;;;;5011990;28;47786;-81
2023/03/18 08:33:24;;;;;;;6.20;2.93;;;13.50;30.70;;;;;;5017630;28;46345;-79
2023/03/18 08:35:50;;;;;;;4.63;2.50;;;13.60;30.30;;;;;;5016190;28;46661;-81
2023/03/18 08:38:17;;;;;;;9.97;3.40;;;13.70;30.40;;;;;;5013881;28;46666;-80
2023/03/18 08:40:42;;;;;;;9.00;4.17;;;13.80;30.30;;;;;;5016421;28;46581;-81
2023/03/18 08:43:08;;;;;;;23.43;10.50;;;13.90;30.70;;;;;;5013704;28;46403;-82
2023/03/18 08:45:35;;;;;;;13.10;6.00;;;14.10;29.30;;;;;;5015557;28;46419;-81
2023/03/18 08:48:01;;;;;;;9.17;4.10;;;14.20;29.10;;;;;;5014533;28;46392;-80
2023/03/18 08:50:28;;;;;;;5.20;2.53;;;14.30;29.10;;;;;;5016406;28;46552;-81
2023/03/18 08:52:58;;;;;;;6.93;2.80;;;14.40;29.20;;;;;;5008901;28;47056;-81
2023/03/18 08:55:33;;;;;;;5.70;2.50;;;14.50;29.00;;;;;;5027079;28;46574;-80
2023/03/18 08:57:59;;;;;;;9.23;2.43;;;14.60;28.60;;;;;;5006677;28;46428;-80
2023/03/18 09:00:26;;;;;;;8.77;2.30;;;14.60;28.70;;;;;;5044696;28;48562;-81
2023/03/18 09:02:52;;;;;;;7.20;2.23;;;14.70;28.30;;;;;;5013278;28;46897;-82
2023/03/18 09:05:19;;;;;;;7.87;2.80;;;14.80;28.10;;;;;;5015631;28;46390;-81
2023/03/18 09:07:45;;;;;;;5.60;2.00;;;14.90;27.90;;;;;;5017397;28;46023;-78
2023/03/18 09:10:16;;;;;;;7.57;2.10;;;15.10;27.50;;;;;;5020571;28;46030;-82
2023/03/18 09:12:42;;;;;;;3.90;1.83;;;15.20;28.00;;;;;;5012637;28;46400;-79
2023/03/18 09:15:09;;;;;;;3.80;1.90;;;15.40;26.80;;;;;;5012963;28;46516;-81
2023/03/18 09:17:39;;;;;;;8.73;1.80;;;15.50;26.10;;;;;;5016053;28;46560;-82
2023/03/18 09:20:06;;;;;;;4.17;1.60;;;15.60;25.40;;;;;;5014094;28;46489;-80
2023/03/18 09:22:32;;;;;;;4.60;1.80;;;15.80;24.90;;;;;;5008232;28;46388;-79
2023/03/18 09:24:58;;;;;;;4.30;1.47;;;15.90;24.30;;;;;;5010883;28;46498;-82
2023/03/18 09:27:24;;;;;;;3.80;1.90;;;15.90;23.80;;;;;;5013951;28;46408;-81
2023/03/18 09:29:49;;;;;;;5.00;2.33;;;15.90;23.40;;;;;;5014927;28;46597;-80
2023/03/18 09:32:15;;;;;;;4.43;1.90;;;16.00;23.10;;;;;;5013477;28;46431;-80
2023/03/18 09:34:40;;;;;;;5.30;1.80;;;16.00;22.60;;;;;;5011685;28;46365;-80
2023/03/18 09:37:06;;;;;;;7.83;1.80;;;16.10;21.30;;;;;;5014249;28;46558;-79
2023/03/18 09:39:32;;;;;;;9.53;1.90;;;16.20;20.70;;;;;;5010274;28;46427;-79
2023/03/18 09:42:27;;;;;;;4.00;1.80;;;16.20;20.80;;;;;;5012273;28;46340;-79
2023/03/18 09:44:58;;;;;;;4.93;2.37;;;16.40;20.30;;;;;;4988333;28;46474;-80
2023/03/18 09:48:02;;;;;;;8.13;1.90;;;16.40;19.90;;;;;;5015521;28;46427;-81
2023/03/18 09:50:44;;;;;;;3.33;1.70;;;16.40;19.90;;;;;;5016245;28;46439;-80
2023/03/18 09:53:19;;;;;;;6.97;1.93;;;16.40;19.90;;;;;;5045344;28;46963;-81
2023/03/18 09:55:55;;;;;;;8.67;1.90;;;16.40;19.10;;;;;;5013583;28;45919;-81
2023/03/18 09:58:50;;;;;;;4.70;1.80;;;16.30;19.70;;;;;;5011786;28;45857;-80
2023/03/18 10:01:18;;;;;;;6.53;1.83;;;16.40;18.90;;;;;;5010634;28;46553;-80
2023/03/18 10:03:55;;;;;;;6.27;2.70;;;16.40;19.30;;;;;;5013781;28;46459;-82
2023/03/18 10:06:23;;;;;;;6.13;2.33;;;16.50;18.80;;;;;;5013299;28;46690;-82
2023/03/18 10:09:05;;;;;;;4.00;2.00;;;16.70;18.40;;;;;;5044541;28;46462;-80
2023/03/18 10:11:32;;;;;;;5.53;2.20;;;16.70;17.90;;;;;;5045336;28;47505;-81
2023/03/18 10:14:25;;;;;;;5.30;2.70;;;16.70;17.60;;;;;;5007571;28;46683;-82
2023/03/18 10:17:12;;;;;;;8.50;2.07;;;16.70;17.60;;;;;;5016873;28;46401;-81
2023/03/18 10:19:45;;;;;;;9.20;2.60;;;17.00;17.80;;;;;;5012357;28;46535;-82
2023/03/18 10:22:51;;;;;;;5.70;2.10;;;17.10;17.80;;;;;;5017338;28;47544;-82
2023/03/18 10:25:42;;;;;;;5.10;2.10;;;17.20;17.20;;;;;;5009451;28;46380;-81
2023/03/18 10:28:40;;;;;;;7.10;2.30;;;17.20;17.50;;;;;;5014058;28;46555;-81
2023/03/18 10:31:24;;;;;;;7.40;2.40;;;17.30;17.20;;;;;;5012615;28;46328;-81
2023/03/18 10:33:58;;;;;;;6.73;3.20;;;17.30;17.10;;;;;;5012217;28;47139;-82
2023/03/18 10:36:32;;;;;;;15.40;3.10;;;17.40;17.30;;;;;;5010960;28;46444;-82
2023/03/18 10:39:00;;;;;;;8.03;2.27;;;17.40;17.30;;;;;;5016275;28;46300;-79
2023/03/18 10:41:32;;;;;;;6.50;2.67;;;17.60;17.10;;;;;;5014926;28;46530;-82
2023/03/18 10:44:03;;;;;;;7.10;2.87;;;17.50;16.50;;;;;;5012721;28;46276;-82
2023/03/18 10:46:30;;;;;;;6.30;2.77;;;17.40;16.60;;;;;;5007741;28;46518;-81
2023/03/18 10:49:10;;;;;;;9.90;2.73;;;17.50;16.40;;;;;;5011781;28;46372;-82
2023/03/18 10:51:56;;;;;;;5.63;2.70;;;17.40;16.10;;;;;;5015067;28;45843;-82
2023/03/18 10:54:54;;;;;;;5.53;2.80;;;17.30;15.50;;;;;;5012888;28;46473;-82
2023/03/18 10:57:20;;;;;;;8.80;2.83;;;17.20;16.00;;;;;;5011532;28;46463;-85
2023/03/18 10:59:46;;;;;;;5.07;2.47;;;17.20;16.20;;;;;;5016304;28;46418;-85
2023/03/18 11:02:32;;;;;;;10.87;2.77;;;17.30;16.00;;;;;;5016007;28;46771;-78
2023/03/18 11:05:03;;;;;;;6.03;2.43;;;17.30;15.70;;;;;;5017105;28;47239;-82
2023/03/18 11:07:29;;;;;;;20.43;9.53;;;17.40;15.90;;;;;;5017687;28;47323;-83
2023/03/18 11:10:17;;;;;;;11.80;5.40;;;17.50;16.00;;;;;;5016642;28;46427;-80
2023/03/18 11:12:43;;;;;;;7.23;2.90;;;17.60;15.50;;;;;;5017612;28;46356;-79
2023/03/18 11:15:13;;;;;;;6.03;2.40;;;17.60;15.90;;;;;;5018731;28;47037;-80
2023/03/18 11:17:39;;;;;;;9.30;2.90;;;17.80;15.50;;;;;;5049541;28;46452;-79
2023/03/18 11:20:32;;;;;;;9.33;2.57;;;17.70;15.40;;;;;;5017202;28;46423;-80
2023/03/18 11:23:11;;;;;;;7.37;2.90;;;17.70;15.00;;;;;;5012788;28;45788;-80
2023/03/18 11:25:37;;;;;;;5.40;2.50;;;17.80;15.30;;;;;;5020253;28;48613;-78
2023/03/18 11:28:05;;;;;;;6.93;2.80;;;17.80;14.80;;;;;;5017478;28;46308;-80
2023/03/18 11:30:51;;;;;;;8.00;2.87;;;17.60;15.00;;;;;;5018956;28;46262;-79
2023/03/18 11:33:18;;;;;;;5.07;2.37;;;17.70;14.70;;;;;;5015508;28;46888;-80
2023/03/18 11:35:50;;;;;;;8.97;2.80;;;17.70;14.00;;;;;;5015334;28;48231;-80
2023/03/18 11:38:30;;;;;;;5.63;2.63;;;17.70;14.60;;;;;;5016477;28;46536;-80
2023/03/18 11:41:14;;;;;;;10.60;2.70;;;17.70;14.20;;;;;;5014496;28;46433;-79
2023/03/18 11:43:55;;;;;;;5.80;2.40;;;17.70;13.60;;;;;;5014793;28;46450;-79
2023/03/18 11:46:23;;;;;;;4.83;2.00;;;17.50;13.50;;;;;;5017133;28;46351;-80
2023/03/18 11:48:49;;;;;;;5.10;1.80;;;17.50;14.10;;;;;;5015784;28;46412;-79
2023/03/18 11:51:39;;;;;;;13.60;2.67;;;17.60;14.10;;;;;;5019776;28;46477;-80
2023/03/18 11:54:24;;;;;;;3.60;1.40;;;17.60;13.80;;;;;;5016202;28;46348;-80
2023/03/18 11:57:21;;;;;;;5.80;1.67;;;17.70;13.50;;;;;;5014955;28;46603;-80
2023/03/18 12:00:04;;;;;;;6.13;2.07;;;17.80;13.40;;;;;;5013495;28;46666;-80
2023/03/18 12:03:02;;;;;;;7.20;1.93;;;17.80;12.80;;;;;;5051336;28;46359;-81
2023/03/18 12:05:55;;;;;;;6.40;1.77;;;17.90;12.80;;;;;;5016126;28;46624;-81
2023/03/18 12:08:30;;;;;;;4.80;1.80;;;17.90;12.80;;;;;;5022632;28;46811;-80
2023/03/18 12:11:20;;;;;;;5.57;1.80;;;18.00;13.10;;;;;;5020984;28;46699;-80
2023/03/18 12:14:02;;;;;;;9.20;2.60;;;18.10;12.80;;;;;;5016141;28;46422;-79
2023/03/18 12:16:40;;;;;;;7.33;1.90;;;18.20;12.90;;;;;;5014296;28;46462;-81
2023/03/18 12:19:27;;;;;;;6.77;2.07;;;18.30;13.00;;;;;;5013992;28;46505;-80
2023/03/18 12:22:26;;;;;;;3.53;1.70;;;18.30;12.70;;;;;;5052440;28;46428;-80
2023/03/18 12:25:18;;;;;;;3.50;1.77;;;18.20;12.60;;;;;;5016591;28;46505;-80
2023/03/18 12:28:13;;;;;;;4.27;1.80;;;18.10;12.80;;;;;;5013266;28;46453;-78
2023/03/18 12:31:04;;;;;;;13.40;1.97;;;18.10;12.80;;;;;;5015564;28;47385;-81
2023/03/18 12:33:50;;;;;;;3.53;1.50;;;18.10;12.80;;;;;;5016290;28;46578;-77
2023/03/18 12:36:43;;;;;;;5.67;1.60;;;17.90;12.70;;;;;;5011966;28;46580;-80
2023/03/18 12:39:46;;;;;;;3.83;1.70;;;18.00;12.70;;;;;;5014770;28;46048;-80
2023/03/18 12:42:41;;;;;;;9.30;1.90;;;18.00;12.30;;;;;;5013824;28;46379;-81
2023/03/18 12:45:15;;;;;;;5.07;1.43;;;18.00;12.50;;;;;;5015227;28;46382;-81
2023/03/18 12:47:58;;;;;;;3.20;1.23;;;18.10;12.70;;;;;;5017424;28;46770;-81
2023/03/18 12:50:31;;;;;;;9.77;1.60;;;18.10;12.40;;;;;;5017080;28;46498;-80
2023/03/18 12:53:03;;;;;;;5.50;1.63;;;18.20;12.30;;;;;;5016527;28;46607;-80
2023/03/18 12:55:37;;;;;;;5.80;1.97;;;18.10;12.10;;;;;;5032319;28;46779;-80
2023/03/18 12:58:21;;;;;;;9.40;1.80;;;18.10;11.90;;;;;;5016603;28;46422;-81
2023/03/18 13:00:56;;;;;;;7.10;1.50;;;18.10;12.10;;;;;;5012728;28;46880;-80
2023/03/18 13:03:37;;;;;;;4.70;2.03;;;18.10;11.50;;;;;;5012790;28;46696;-81
2023/03/18 13:06:04;;;;;;;7.50;1.67;;;18.10;11.70;;;;;;5015695;28;46375;-80